Аэропорт: Витебск Восточный. Витебск

ICAO: UMII

METAR:
Информация по данной станции не доступна
METAR:
2021-10-22 20:03:00
TAF UMII 222003Z 2221/2306 22007G12MPS 6000 BKN015 TEMPO 2221/2306 24010G15MPS 1500 SHRA BKN005 BKN020CB